Decoded Metar for LFBI (POITIERS in FRANCE) (IATA:PIS) | Meteo·Mobile Aviation Weather
aviador You're here:

LFBI Decoded Metar

POITIERS in FRANCE
Report Time2018-12-16 16:30:00
UTC Time2018-12-16 17:02:07
Flight Rules ifr IFR
Wind160° at 06 kt
W.Decomp.*RWY 21: 3.9 kt HW 4.5 kt LCW
W.Rank160° ranks 18
Current wind is above 160° avg. (5.4)
Visibility9999 m
Phenomena:Shower Rain
Clouds:Broken 008 Hf
Broken 009 Hf
Overcast 014 Hf
Expected CloudBase > 400 ft AGL from Temp-Dew spread
Ceiling900 ft
Temp09°C (ISA -5)
Dew Point08°C (94% RH)
AAT6.4°C
QNH1011 hPa
Density Alt-16 ft
Elevation394 ft
Report Wrong Elevation
Raw Report
LFBI 161630Z AUTO 16006KT 9999 BKN009 OVC014 09/08 Q1011 TEMPO
26015G25KT 2500 SHRA BKN008 BKN020CB=

Extra information for LFBI:More info

Metar Taf Metar & Taf Last 4 Metars F.Rules Stats Wind Profile Meteogram Temp Stats Airport Information Weather charts Add Link Nearby VenuesMetar ALERT Operation Metar Decoded Social comments